Pagina principale
METAR-TAF:

METAR-TAF

Aeroporti :

Parma, Italia

Aeroporto di Parma

latitudine: 44-49-17N, longitudine: 010-17-41E, altezza: 50 m

Osservazione

Il bollettino è stato emesso 1 ora e 20 minuti fa, alle 06:50 UTC
Vento 3 kt da direzioni variabili
Temperature 19°C
Umidità 64%
Pressione 1020 hPa
Visibilità 10 km o più
nessuna nube inferiore a 1500 m e nessun cumulonembo

METAR: LIMP 270650Z VRB03KT CAVOK 19/12 Q1020

Ora: 10:10 (08:10 UTC)

Previsione

Il bollettino è stato emesso 3 ore e 10 minuti fa, alle 05:00 UTC
Previsione valida dal 27 alle 06 UTC al 28 alle 06 UTC
Vento 6 kt da est
Visibilità 10 km o più
nessuna nube inferiore a 1500 m e nessun cumulonembo

TAF: LIMP 270500Z 2706/2806 08006KT CAVOK

Osservazioni e previsioni meteorologiche di più di 4000 aeroporti (messaggi METAR e TAF).

Le stazioni disponibili sono rappresentate dai dischi gialli e rossi sulla carta.

Puntare il mouse per vedere il nome della stazione.

Clicca sopra per visualizzare le osservazioni e previsioni meteorologiche.

Per cambiare la mappa : fare clic sui pulsanti verdi con una croce nera per ingrandire, il pulsante verde con un trattino per diminuire, o sulla freccia verde per le mappe adiacenti.


METAR-TAF: